Terminal Aerodrome Forecast
Issued by NWS

Home | Current Version | Previous Version | Text Only | Print | Product List | Glossary Off
Versions: 1 2 3 4 5 6 7 8 9 10 11 12 13 14 15 16 17

000
FTUS45 KGGW 231944 AAB
TAFSDY
TAF AMD
KSDY 231944Z 2320/2418 05005KT 3SM -FZRASN OVC005
     FM240400 35006KT P6SM OVC007
     FM240700 34006KT P6SM VCSH OVC009
     FM240900 33007KT P6SM BKN015=

USA.gov is the U.S. government's official web portal to all federal, state and local government web resources and services.